Details From KGKJ - PORT MEADVILLE
To KDKK - CHAUTAUQUA CO DUNKIRK
Flight Number -
Tags decoded
Created
Modified
Stats Distance 81 nm / 150 km
Max Altitude 0 ft / 0 m
Waypoints 7
Social Downloads 1
Likes 0
Share VATSIM

Download

Looking for another format? Having issues loading an existing format? Contact us
Advertisement - Login to hide

Notes

Requested: KGKJ PA47 ERI KERI PN40 0D4 DKK KDKK Unmatched points: PN40

Route

KGKJ PA47 ERI KERI 0D4 DKK KDKK

ID Type Via Altitude Latitude Longitude Leg Dist Tot Dist Heading (true) Name
O KGKJ APT - 0 ft / 0 m 41.62652˚ -80.21473˚ - 0 nm - PORT MEADVILLE
PA47 APT - 0 ft / 0 m 41.85283˚ -80.40729˚ 16 nm 16 nm 328° / 328° Jim Shearer
ERI NDB - 0 ft / 0 m 42.03858˚ -80.25542˚ 13 nm 29 nm 31° / 31° ESMER NDB
KERI APT - 0 ft / 0 m 42.08287˚ -80.17544˚ 4 nm 33 nm 53° / 53° Erie Intl Tom Ridge Fld
0D4 APT - 0 ft / 0 m 42.35617˚ -79.54894˚ 32 nm 65 nm 59° / 60° Camp Vernon
DKK VOR - 0 ft / 0 m 42.49056˚ -79.27408˚ 14 nm 80 nm 56° / 57° DUNKIRK VORTAC
O KDKK APT - 0 ft / 0 m 42.49396˚ -79.27118˚ 0 nm 80 nm 32° / 32° CHAUTAUQUA CO DUNKIRK

Altitude Profile

Advertisement - Login to hide

KGKJ

Details ICAO KGKJ
Name PORT MEADVILLE
Region United States
Timezone America/New_York (UTC-5.0)
Stats Elevation 1,400 ft / 427 m (AMSL)
Location 41.626515° -80.214729°
Runways 1
Magnetic Variation 9.412° W

METAR

KGKJ 141038Z AUTO 34008KT 2SM -SN BR BKN015 BKN021 OVC042 M07/M08 A2963 RMK AO2 P0000 T10671083

Decode

TAF

Not found

Departure Runways

ID Width Length Bearing (true) Bearing (mag) Surface Threshold Offset Overrun Length
07 75 ft / 23 m 4,994 ft / 1,522 m 61.15° 70.56° Asphalt 0 ft / 0 m 0 ft / 0 m
25 75 ft / 23 m 4,994 ft / 1,522 m 241.16° 250.57° Asphalt 0 ft / 0 m 0 ft / 0 m

KDKK

Details ICAO KDKK (DKK)
Name CHAUTAUQUA CO DUNKIRK
Region United States
Timezone America/New_York (UTC-5.0)
Stats Elevation 693 ft / 211 m (AMSL)
Location 42.493960° -79.271178°
Runways 2
Magnetic Variation 10.249° W

METAR

KDKK 140953Z AUTO 07007KT 5SM -SN BR OVC015 M08/M09 A2963 RMK AO2 SLP047 P0000 T10781094

Decode

TAF

Not found

Destination Runways

ID Width Length Bearing (true) Bearing (mag) Surface Threshold Offset Overrun Length
06 100 ft / 30 m 5,003 ft / 1,525 m 50.00° 60.25° Asphalt 0 ft / 0 m 0 ft / 0 m
15 100 ft / 30 m 4,004 ft / 1,220 m 138.98° 149.23° Asphalt 0 ft / 0 m 0 ft / 0 m
24 100 ft / 30 m 5,003 ft / 1,525 m 230.01° 240.26° Asphalt 0 ft / 0 m 0 ft / 0 m
33 100 ft / 30 m 4,004 ft / 1,220 m 318.98° 329.23° Asphalt 0 ft / 0 m 0 ft / 0 m